sensor_id;sensor_type;location;lat;lon;timestamp;temperature;humidity
33095;DHT22;19459;53.044;8.910;2022-12-24T00:00:05;6.40;99.90
33095;DHT22;19459;53.044;8.910;2022-12-24T00:02:31;6.40;99.90
33095;DHT22;19459;53.044;8.910;2022-12-24T00:04:57;6.40;99.90
33095;DHT22;19459;53.044;8.910;2022-12-24T00:07:24;6.40;99.90
33095;DHT22;19459;53.044;8.910;2022-12-24T00:09:50;6.40;99.90
33095;DHT22;19459;53.044;8.910;2022-12-24T00:12:16;6.40;99.90
33095;DHT22;19459;53.044;8.910;2022-12-24T00:14:41;6.40;99.90
33095;DHT22;19459;53.044;8.910;2022-12-24T00:17:07;6.40;99.90
33095;DHT22;19459;53.044;8.910;2022-12-24T00:19:33;6.40;99.90
33095;DHT22;19459;53.044;8.910;2022-12-24T00:21:59;6.40;99.90
33095;DHT22;19459;53.044;8.910;2022-12-24T00:24:24;6.40;99.90
33095;DHT22;19459;53.044;8.910;2022-12-24T00:26:50;6.40;99.90
33095;DHT22;19459;53.044;8.910;2022-12-24T00:29:16;6.40;99.90
33095;DHT22;19459;53.044;8.910;2022-12-24T00:31:42;6.40;99.90
33095;DHT22;19459;53.044;8.910;2022-12-24T00:34:07;6.30;99.90
33095;DHT22;19459;53.044;8.910;2022-12-24T00:36:33;6.40;99.90
33095;DHT22;19459;53.044;8.910;2022-12-24T00:38:59;6.40;99.90
33095;DHT22;19459;53.044;8.910;2022-12-24T00:41:25;6.40;99.90
33095;DHT22;19459;53.044;8.910;2022-12-24T00:44:01;6.40;99.90
33095;DHT22;19459;53.044;8.910;2022-12-24T00:46:33;6.40;99.90
33095;DHT22;19459;53.044;8.910;2022-12-24T00:48:59;6.40;99.90
33095;DHT22;19459;53.044;8.910;2022-12-24T00:51:26;6.40;99.90
33095;DHT22;19459;53.044;8.910;2022-12-24T00:53:52;6.30;99.90
33095;DHT22;19459;53.044;8.910;2022-12-24T00:56:19;6.40;99.90
33095;DHT22;19459;53.044;8.910;2022-12-24T00:58:45;6.40;99.90
33095;DHT22;19459;53.044;8.910;2022-12-24T01:01:11;6.40;99.90
33095;DHT22;19459;53.044;8.910;2022-12-24T01:03:37;6.40;99.90
33095;DHT22;19459;53.044;8.910;2022-12-24T01:06:15;6.40;99.90
33095;DHT22;19459;53.044;8.910;2022-12-24T01:08:42;6.30;99.90
33095;DHT22;19459;53.044;8.910;2022-12-24T01:11:10;6.40;99.90
33095;DHT22;19459;53.044;8.910;2022-12-24T01:13:37;6.30;99.90
33095;DHT22;19459;53.044;8.910;2022-12-24T01:16:03;6.30;99.90
33095;DHT22;19459;53.044;8.910;2022-12-24T01:18:36;6.40;99.90
33095;DHT22;19459;53.044;8.910;2022-12-24T01:21:02;6.40;99.90
33095;DHT22;19459;53.044;8.910;2022-12-24T01:23:29;6.40;99.90
33095;DHT22;19459;53.044;8.910;2022-12-24T01:25:59;6.40;99.90
33095;DHT22;19459;53.044;8.910;2022-12-24T01:28:26;6.40;99.90
33095;DHT22;19459;53.044;8.910;2022-12-24T01:30:52;6.40;99.90
33095;DHT22;19459;53.044;8.910;2022-12-24T01:33:18;6.40;99.90
33095;DHT22;19459;53.044;8.910;2022-12-24T01:35:44;6.40;99.90
33095;DHT22;19459;53.044;8.910;2022-12-24T01:38:11;6.40;99.90
33095;DHT22;19459;53.044;8.910;2022-12-24T01:40:41;6.40;99.90
33095;DHT22;19459;53.044;8.910;2022-12-24T01:43:28;6.40;99.90
33095;DHT22;19459;53.044;8.910;2022-12-24T01:46:00;6.40;99.90
33095;DHT22;19459;53.044;8.910;2022-12-24T01:48:44;6.40;99.90
33095;DHT22;19459;53.044;8.910;2022-12-24T01:56:39;6.40;99.90
33095;DHT22;19459;53.044;8.910;2022-12-24T01:59:12;6.40;99.90
33095;DHT22;19459;53.044;8.910;2022-12-24T02:01:40;6.40;99.90
33095;DHT22;19459;53.044;8.910;2022-12-24T02:07:06;6.40;99.90
33095;DHT22;19459;53.044;8.910;2022-12-24T02:09:33;6.40;99.90
33095;DHT22;19459;53.044;8.910;2022-12-24T02:12:00;6.40;99.90
33095;DHT22;19459;53.044;8.910;2022-12-24T02:14:28;6.40;99.90
33095;DHT22;19459;53.044;8.910;2022-12-24T02:17:11;6.30;99.90
33095;DHT22;19459;53.044;8.910;2022-12-24T02:23:21;6.30;99.90
33095;DHT22;19459;53.044;8.910;2022-12-24T02:32:35;6.30;99.90
33095;DHT22;19459;53.044;8.910;2022-12-24T02:40:42;6.40;99.90
33095;DHT22;19459;53.044;8.910;2022-12-24T02:43:36;6.40;99.90
33095;DHT22;19459;53.044;8.910;2022-12-24T02:46:08;6.40;99.90
33095;DHT22;19459;53.044;8.910;2022-12-24T02:48:39;6.40;99.90
33095;DHT22;19459;53.044;8.910;2022-12-24T02:51:08;6.40;99.90
33095;DHT22;19459;53.044;8.910;2022-12-24T02:53:36;6.40;99.90
33095;DHT22;19459;53.044;8.910;2022-12-24T02:56:24;6.40;99.90
33095;DHT22;19459;53.044;8.910;2022-12-24T02:59:43;6.40;99.90
33095;DHT22;19459;53.044;8.910;2022-12-24T03:08:04;6.40;99.90
33095;DHT22;19459;53.044;8.910;2022-12-24T03:10:57;6.40;99.90
33095;DHT22;19459;53.044;8.910;2022-12-24T03:13:27;6.40;99.90
33095;DHT22;19459;53.044;8.910;2022-12-24T03:15:54;6.40;99.90
33095;DHT22;19459;53.044;8.910;2022-12-24T03:18:24;6.40;99.90
33095;DHT22;19459;53.044;8.910;2022-12-24T03:23:28;6.40;99.90
33095;DHT22;19459;53.044;8.910;2022-12-24T03:25:54;6.40;99.90
33095;DHT22;19459;53.044;8.910;2022-12-24T03:28:24;6.40;99.90
33095;DHT22;19459;53.044;8.910;2022-12-24T03:30:52;6.40;99.90
33095;DHT22;19459;53.044;8.910;2022-12-24T03:33:18;6.40;99.90
33095;DHT22;19459;53.044;8.910;2022-12-24T03:35:44;6.40;99.90
33095;DHT22;19459;53.044;8.910;2022-12-24T03:38:10;6.30;99.90
33095;DHT22;19459;53.044;8.910;2022-12-24T03:40:36;6.40;99.90
33095;DHT22;19459;53.044;8.910;2022-12-24T03:43:01;6.40;99.90
33095;DHT22;19459;53.044;8.910;2022-12-24T03:45:27;6.40;99.90
33095;DHT22;19459;53.044;8.910;2022-12-24T03:47:53;6.30;99.90
33095;DHT22;19459;53.044;8.910;2022-12-24T03:50:19;6.30;99.90
33095;DHT22;19459;53.044;8.910;2022-12-24T03:52:45;6.30;99.90
33095;DHT22;19459;53.044;8.910;2022-12-24T03:55:10;6.30;99.90
33095;DHT22;19459;53.044;8.910;2022-12-24T03:57:36;6.30;99.90
33095;DHT22;19459;53.044;8.910;2022-12-24T04:00:04;6.40;99.90
33095;DHT22;19459;53.044;8.910;2022-12-24T04:02:30;6.40;99.90
33095;DHT22;19459;53.044;8.910;2022-12-24T04:04:56;6.40;99.90
33095;DHT22;19459;53.044;8.910;2022-12-24T04:07:22;6.40;99.90
33095;DHT22;19459;53.044;8.910;2022-12-24T04:09:48;6.40;99.90
33095;DHT22;19459;53.044;8.910;2022-12-24T04:12:14;6.40;99.90
33095;DHT22;19459;53.044;8.910;2022-12-24T04:14:40;6.40;99.90
33095;DHT22;19459;53.044;8.910;2022-12-24T04:17:06;6.40;99.90
33095;DHT22;19459;53.044;8.910;2022-12-24T04:19:32;6.40;99.90
33095;DHT22;19459;53.044;8.910;2022-12-24T04:21:57;6.30;99.90
33095;DHT22;19459;53.044;8.910;2022-12-24T04:24:23;6.30;99.90
33095;DHT22;19459;53.044;8.910;2022-12-24T04:26:49;6.30;99.90
33095;DHT22;19459;53.044;8.910;2022-12-24T04:29:15;6.30;99.90
33095;DHT22;19459;53.044;8.910;2022-12-24T04:31:40;6.30;99.90
33095;DHT22;19459;53.044;8.910;2022-12-24T04:34:06;6.30;99.90
33095;DHT22;19459;53.044;8.910;2022-12-24T04:36:32;6.30;99.90
33095;DHT22;19459;53.044;8.910;2022-12-24T04:38:59;6.30;99.90
33095;DHT22;19459;53.044;8.910;2022-12-24T04:41:25;6.30;99.90
33095;DHT22;19459;53.044;8.910;2022-12-24T04:43:53;6.30;99.90
33095;DHT22;19459;53.044;8.910;2022-12-24T04:46:22;6.30;99.90
33095;DHT22;19459;53.044;8.910;2022-12-24T04:48:51;6.30;99.90
33095;DHT22;19459;53.044;8.910;2022-12-24T04:51:17;6.40;99.90
33095;DHT22;19459;53.044;8.910;2022-12-24T04:53:44;6.40;99.90
33095;DHT22;19459;53.044;8.910;2022-12-24T04:56:19;6.40;99.90
33095;DHT22;19459;53.044;8.910;2022-12-24T04:58:48;6.40;99.90
33095;DHT22;19459;53.044;8.910;2022-12-24T05:01:18;6.40;99.90
33095;DHT22;19459;53.044;8.910;2022-12-24T05:03:47;6.40;99.90
33095;DHT22;19459;53.044;8.910;2022-12-24T05:06:15;6.30;99.90
33095;DHT22;19459;53.044;8.910;2022-12-24T05:08:43;6.30;99.90
33095;DHT22;19459;53.044;8.910;2022-12-24T05:11:09;6.40;99.90
33095;DHT22;19459;53.044;8.910;2022-12-24T05:13:38;6.40;99.90
33095;DHT22;19459;53.044;8.910;2022-12-24T05:16:05;6.30;99.90
33095;DHT22;19459;53.044;8.910;2022-12-24T05:18:31;6.30;99.90
33095;DHT22;19459;53.044;8.910;2022-12-24T05:20:57;6.40;99.90
33095;DHT22;19459;53.044;8.910;2022-12-24T05:23:24;6.40;99.90
33095;DHT22;19459;53.044;8.910;2022-12-24T05:26:15;6.50;99.90
33095;DHT22;19459;53.044;8.910;2022-12-24T05:28:57;6.50;99.90
33095;DHT22;19459;53.044;8.910;2022-12-24T05:31:25;6.60;99.90
33095;DHT22;19459;53.044;8.910;2022-12-24T05:33:52;6.60;99.90
33095;DHT22;19459;53.044;8.910;2022-12-24T05:36:19;6.60;99.90
33095;DHT22;19459;53.044;8.910;2022-12-24T05:38:45;6.70;99.90
33095;DHT22;19459;53.044;8.910;2022-12-24T05:41:11;6.70;99.90
33095;DHT22;19459;53.044;8.910;2022-12-24T05:43:37;6.70;99.90
33095;DHT22;19459;53.044;8.910;2022-12-24T05:46:06;6.80;99.90
33095;DHT22;19459;53.044;8.910;2022-12-24T05:48:33;6.80;99.90
33095;DHT22;19459;53.044;8.910;2022-12-24T05:51:03;6.90;99.90
33095;DHT22;19459;53.044;8.910;2022-12-24T05:53:30;6.90;99.90
33095;DHT22;19459;53.044;8.910;2022-12-24T05:56:08;6.90;99.90
33095;DHT22;19459;53.044;8.910;2022-12-24T05:58:36;7.00;99.90
33095;DHT22;19459;53.044;8.910;2022-12-24T06:01:03;7.00;99.90
33095;DHT22;19459;53.044;8.910;2022-12-24T06:03:31;7.00;99.90
33095;DHT22;19459;53.044;8.910;2022-12-24T06:06:03;7.20;99.90
33095;DHT22;19459;53.044;8.910;2022-12-24T06:08:31;7.40;99.90
33095;DHT22;19459;53.044;8.910;2022-12-24T06:11:00;7.50;99.90
33095;DHT22;19459;53.044;8.910;2022-12-24T06:13:28;7.60;99.90
33095;DHT22;19459;53.044;8.910;2022-12-24T06:15:55;7.70;99.90
33095;DHT22;19459;53.044;8.910;2022-12-24T06:18:22;7.80;99.90
33095;DHT22;19459;53.044;8.910;2022-12-24T06:20:52;7.90;99.90
33095;DHT22;19459;53.044;8.910;2022-12-24T06:23:18;7.90;99.90
33095;DHT22;19459;53.044;8.910;2022-12-24T06:25:46;8.00;99.90
33095;DHT22;19459;53.044;8.910;2022-12-24T06:28:12;8.00;99.90
33095;DHT22;19459;53.044;8.910;2022-12-24T06:30:38;8.10;99.90
33095;DHT22;19459;53.044;8.910;2022-12-24T06:33:04;8.10;99.90
33095;DHT22;19459;53.044;8.910;2022-12-24T06:35:31;8.10;99.90
33095;DHT22;19459;53.044;8.910;2022-12-24T06:37:57;8.20;99.90
33095;DHT22;19459;53.044;8.910;2022-12-24T06:40:27;8.30;99.90
33095;DHT22;19459;53.044;8.910;2022-12-24T06:42:53;8.30;99.90
33095;DHT22;19459;53.044;8.910;2022-12-24T06:45:18;8.30;99.90
33095;DHT22;19459;53.044;8.910;2022-12-24T06:47:44;8.40;99.90
33095;DHT22;19459;53.044;8.910;2022-12-24T06:50:10;8.40;99.90
33095;DHT22;19459;53.044;8.910;2022-12-24T06:52:36;8.40;99.90
33095;DHT22;19459;53.044;8.910;2022-12-24T06:55:06;8.40;99.90
33095;DHT22;19459;53.044;8.910;2022-12-24T06:57:33;8.40;99.90
33095;DHT22;19459;53.044;8.910;2022-12-24T06:59:59;8.50;99.90
33095;DHT22;19459;53.044;8.910;2022-12-24T07:02:25;8.40;99.90
33095;DHT22;19459;53.044;8.910;2022-12-24T07:04:51;8.40;99.90
33095;DHT22;19459;53.044;8.910;2022-12-24T07:07:16;8.40;99.90
33095;DHT22;19459;53.044;8.910;2022-12-24T07:09:42;8.30;99.90
33095;DHT22;19459;53.044;8.910;2022-12-24T07:12:08;8.40;99.90
33095;DHT22;19459;53.044;8.910;2022-12-24T07:14:34;8.30;99.90
33095;DHT22;19459;53.044;8.910;2022-12-24T07:16:59;8.20;99.90
33095;DHT22;19459;53.044;8.910;2022-12-24T07:19:25;8.20;99.90
33095;DHT22;19459;53.044;8.910;2022-12-24T07:21:51;8.20;99.90
33095;DHT22;19459;53.044;8.910;2022-12-24T07:24:17;8.30;99.90
33095;DHT22;19459;53.044;8.910;2022-12-24T07:26:42;8.30;99.90
33095;DHT22;19459;53.044;8.910;2022-12-24T07:29:08;8.30;99.90
33095;DHT22;19459;53.044;8.910;2022-12-24T07:31:34;8.20;99.90
33095;DHT22;19459;53.044;8.910;2022-12-24T07:34:00;8.30;99.90
33095;DHT22;19459;53.044;8.910;2022-12-24T07:36:25;8.30;99.90
33095;DHT22;19459;53.044;8.910;2022-12-24T07:38:53;8.30;99.90
33095;DHT22;19459;53.044;8.910;2022-12-24T07:41:19;8.30;99.90
33095;DHT22;19459;53.044;8.910;2022-12-24T07:43:45;8.30;99.90
33095;DHT22;19459;53.044;8.910;2022-12-24T07:46:11;8.30;99.90
33095;DHT22;19459;53.044;8.910;2022-12-24T07:48:37;8.30;99.90
33095;DHT22;19459;53.044;8.910;2022-12-24T07:51:03;8.30;99.90
33095;DHT22;19459;53.044;8.910;2022-12-24T07:53:29;8.30;99.90
33095;DHT22;19459;53.044;8.910;2022-12-24T07:55:56;8.30;99.90
33095;DHT22;19459;53.044;8.910;2022-12-24T07:58:22;8.30;99.90
33095;DHT22;19459;53.044;8.910;2022-12-24T08:00:53;8.40;99.90
33095;DHT22;19459;53.044;8.910;2022-12-24T08:03:20;8.40;99.90
33095;DHT22;19459;53.044;8.910;2022-12-24T08:05:46;8.40;99.90
33095;DHT22;19459;53.044;8.910;2022-12-24T08:08:13;8.40;99.90
33095;DHT22;19459;53.044;8.910;2022-12-24T08:10:40;8.30;99.90
33095;DHT22;19459;53.044;8.910;2022-12-24T08:13:07;8.40;99.90
33095;DHT22;19459;53.044;8.910;2022-12-24T08:15:34;8.30;99.90
33095;DHT22;19459;53.044;8.910;2022-12-24T08:18:00;8.30;99.90
33095;DHT22;19459;53.044;8.910;2022-12-24T08:20:25;8.40;99.90
33095;DHT22;19459;53.044;8.910;2022-12-24T08:22:52;8.40;99.90
33095;DHT22;19459;53.044;8.910;2022-12-24T08:25:18;8.40;99.90
33095;DHT22;19459;53.044;8.910;2022-12-24T08:27:45;8.40;99.90
33095;DHT22;19459;53.044;8.910;2022-12-24T08:30:12;8.40;99.90
33095;DHT22;19459;53.044;8.910;2022-12-24T08:32:38;8.40;99.90
33095;DHT22;19459;53.044;8.910;2022-12-24T08:35:05;8.40;99.90
33095;DHT22;19459;53.044;8.910;2022-12-24T08:37:30;8.40;99.90
33095;DHT22;19459;53.044;8.910;2022-12-24T08:39:56;8.40;99.90
33095;DHT22;19459;53.044;8.910;2022-12-24T08:42:23;8.40;99.90
33095;DHT22;19459;53.044;8.910;2022-12-24T08:44:52;8.40;99.90
33095;DHT22;19459;53.044;8.910;2022-12-24T08:47:18;8.40;99.90
33095;DHT22;19459;53.044;8.910;2022-12-24T08:49:43;8.50;99.90
33095;DHT22;19459;53.044;8.910;2022-12-24T08:52:09;8.50;99.90
33095;DHT22;19459;53.044;8.910;2022-12-24T08:54:35;8.50;99.90
33095;DHT22;19459;53.044;8.910;2022-12-24T08:57:01;8.50;99.90
33095;DHT22;19459;53.044;8.910;2022-12-24T08:59:26;8.60;99.90
33095;DHT22;19459;53.044;8.910;2022-12-24T09:01:52;8.60;99.90
33095;DHT22;19459;53.044;8.910;2022-12-24T09:04:18;8.60;99.90
33095;DHT22;19459;53.044;8.910;2022-12-24T09:06:44;8.60;99.90
33095;DHT22;19459;53.044;8.910;2022-12-24T09:09:10;8.70;99.90
33095;DHT22;19459;53.044;8.910;2022-12-24T09:11:36;8.70;99.90
33095;DHT22;19459;53.044;8.910;2022-12-24T09:14:01;8.80;99.90
33095;DHT22;19459;53.044;8.910;2022-12-24T09:16:27;8.80;99.90
33095;DHT22;19459;53.044;8.910;2022-12-24T09:18:53;8.80;99.90
33095;DHT22;19459;53.044;8.910;2022-12-24T09:21:21;8.80;99.90
33095;DHT22;19459;53.044;8.910;2022-12-24T09:23:47;8.90;99.90
33095;DHT22;19459;53.044;8.910;2022-12-24T09:26:16;9.00;99.90
33095;DHT22;19459;53.044;8.910;2022-12-24T09:28:44;9.10;99.90
33095;DHT22;19459;53.044;8.910;2022-12-24T09:31:11;9.20;99.90
33095;DHT22;19459;53.044;8.910;2022-12-24T09:33:39;9.50;99.90
33095;DHT22;19459;53.044;8.910;2022-12-24T09:36:06;9.50;99.90
33095;DHT22;19459;53.044;8.910;2022-12-24T09:38:34;9.60;99.90
33095;DHT22;19459;53.044;8.910;2022-12-24T09:41:09;9.60;99.90
33095;DHT22;19459;53.044;8.910;2022-12-24T09:43:39;9.60;99.90
33095;DHT22;19459;53.044;8.910;2022-12-24T09:46:31;9.60;99.90
33095;DHT22;19459;53.044;8.910;2022-12-24T09:49:04;9.60;99.90
33095;DHT22;19459;53.044;8.910;2022-12-24T09:51:35;9.60;99.90
33095;DHT22;19459;53.044;8.910;2022-12-24T09:56:47;9.70;99.90
33095;DHT22;19459;53.044;8.910;2022-12-24T09:59:17;9.70;99.90
33095;DHT22;19459;53.044;8.910;2022-12-24T10:01:46;9.70;99.90
33095;DHT22;19459;53.044;8.910;2022-12-24T10:04:16;9.60;99.90
33095;DHT22;19459;53.044;8.910;2022-12-24T10:09:57;9.80;99.90
33095;DHT22;19459;53.044;8.910;2022-12-24T10:15:35;10.40;99.90
33095;DHT22;19459;53.044;8.910;2022-12-24T10:23:25;11.00;99.90
33095;DHT22;19459;53.044;8.910;2022-12-24T10:28:49;11.00;99.90
33095;DHT22;19459;53.044;8.910;2022-12-24T10:34:37;10.50;99.90
33095;DHT22;19459;53.044;8.910;2022-12-24T10:37:16;10.40;99.90
33095;DHT22;19459;53.044;8.910;2022-12-24T10:39:47;10.30;99.90
33095;DHT22;19459;53.044;8.910;2022-12-24T10:42:14;10.30;99.90
33095;DHT22;19459;53.044;8.910;2022-12-24T10:44:53;10.30;99.90
33095;DHT22;19459;53.044;8.910;2022-12-24T10:47:21;10.20;99.90
33095;DHT22;19459;53.044;8.910;2022-12-24T10:49:52;10.10;99.90
33095;DHT22;19459;53.044;8.910;2022-12-24T10:52:24;10.00;99.90
33095;DHT22;19459;53.044;8.910;2022-12-24T10:55:20;10.00;99.90
33095;DHT22;19459;53.044;8.910;2022-12-24T10:57:55;9.90;99.90
33095;DHT22;19459;53.044;8.910;2022-12-24T11:00:27;9.90;99.90
33095;DHT22;19459;53.044;8.910;2022-12-24T11:05:36;9.80;99.90
33095;DHT22;19459;53.044;8.910;2022-12-24T11:08:12;9.80;99.90
33095;DHT22;19459;53.044;8.910;2022-12-24T11:11:00;9.80;99.90
33095;DHT22;19459;53.044;8.910;2022-12-24T11:13:40;9.90;99.90
33095;DHT22;19459;53.044;8.910;2022-12-24T11:16:32;10.00;99.90
33095;DHT22;19459;53.044;8.910;2022-12-24T11:19:05;9.90;99.90
33095;DHT22;19459;53.044;8.910;2022-12-24T11:21:39;10.00;99.90
33095;DHT22;19459;53.044;8.910;2022-12-24T11:24:25;10.00;99.90
33095;DHT22;19459;53.044;8.910;2022-12-24T11:26:53;10.20;99.90
33095;DHT22;19459;53.044;8.910;2022-12-24T11:29:24;10.40;99.90
33095;DHT22;19459;53.044;8.910;2022-12-24T11:31:51;10.30;99.90
33095;DHT22;19459;53.044;8.910;2022-12-24T11:34:30;10.50;99.90
33095;DHT22;19459;53.044;8.910;2022-12-24T11:37:15;10.50;99.90
33095;DHT22;19459;53.044;8.910;2022-12-24T11:39:49;10.50;99.90
33095;DHT22;19459;53.044;8.910;2022-12-24T11:45:07;10.50;99.90
33095;DHT22;19459;53.044;8.910;2022-12-24T11:47:39;10.40;99.90
33095;DHT22;19459;53.044;8.910;2022-12-24T11:55:48;10.50;99.90
33095;DHT22;19459;53.044;8.910;2022-12-24T12:04:04;10.40;99.90
33095;DHT22;19459;53.044;8.910;2022-12-24T12:09:25;10.40;99.90
33095;DHT22;19459;53.044;8.910;2022-12-24T12:11:58;10.30;99.90
33095;DHT22;19459;53.044;8.910;2022-12-24T12:14:29;10.30;99.90
33095;DHT22;19459;53.044;8.910;2022-12-24T12:22:59;10.20;99.90
33095;DHT22;19459;53.044;8.910;2022-12-24T12:29:00;10.20;99.90
33095;DHT22;19459;53.044;8.910;2022-12-24T12:31:44;10.20;99.90
33095;DHT22;19459;53.044;8.910;2022-12-24T12:34:24;10.30;99.90
33095;DHT22;19459;53.044;8.910;2022-12-24T12:36:55;10.30;99.90
33095;DHT22;19459;53.044;8.910;2022-12-24T12:39:23;10.30;99.90
33095;DHT22;19459;53.044;8.910;2022-12-24T12:45:10;10.10;99.90
33095;DHT22;19459;53.044;8.910;2022-12-24T12:54:34;10.20;99.90
33095;DHT22;19459;53.044;8.910;2022-12-24T12:57:06;10.20;99.90
33095;DHT22;19459;53.044;8.910;2022-12-24T12:59:39;10.20;99.90
33095;DHT22;19459;53.044;8.910;2022-12-24T13:17:37;10.30;99.90
33095;DHT22;19459;53.044;8.910;2022-12-24T13:22:35;10.30;99.90
33095;DHT22;19459;53.044;8.910;2022-12-24T13:25:01;10.30;99.90
33095;DHT22;19459;53.044;8.910;2022-12-24T13:27:31;10.30;99.90
33095;DHT22;19459;53.044;8.910;2022-12-24T13:30:02;10.30;99.90
33095;DHT22;19459;53.044;8.910;2022-12-24T13:32:46;10.30;99.90
33095;DHT22;19459;53.044;8.910;2022-12-24T13:37:49;10.30;99.90
33095;DHT22;19459;53.044;8.910;2022-12-24T13:40:26;10.30;99.90
33095;DHT22;19459;53.044;8.910;2022-12-24T13:56:21;10.30;99.90
33095;DHT22;19459;53.044;8.910;2022-12-24T13:58:54;10.40;99.90
33095;DHT22;19459;53.044;8.910;2022-12-24T14:01:38;10.30;99.90
33095;DHT22;19459;53.044;8.910;2022-12-24T14:04:07;10.40;99.90
33095;DHT22;19459;53.044;8.910;2022-12-24T14:06:39;10.40;99.90
33095;DHT22;19459;53.044;8.910;2022-12-24T14:14:32;10.50;99.90
33095;DHT22;19459;53.044;8.910;2022-12-24T14:19:46;10.50;99.90
33095;DHT22;19459;53.044;8.910;2022-12-24T14:22:33;10.40;99.90
33095;DHT22;19459;53.044;8.910;2022-12-24T14:25:16;10.40;99.90
33095;DHT22;19459;53.044;8.910;2022-12-24T14:28:03;10.30;99.90
33095;DHT22;19459;53.044;8.910;2022-12-24T14:30:30;10.20;99.90
33095;DHT22;19459;53.044;8.910;2022-12-24T14:32:56;10.20;99.90
33095;DHT22;19459;53.044;8.910;2022-12-24T14:35:37;10.20;99.90
33095;DHT22;19459;53.044;8.910;2022-12-24T14:38:06;10.10;99.90
33095;DHT22;19459;53.044;8.910;2022-12-24T14:41:05;10.00;99.90
33095;DHT22;19459;53.044;8.910;2022-12-24T14:53:56;9.70;99.90
33095;DHT22;19459;53.044;8.910;2022-12-24T14:56:16;9.60;99.90
33095;DHT22;19459;53.044;8.910;2022-12-24T14:58:44;9.60;99.90
33095;DHT22;19459;53.044;8.910;2022-12-24T15:01:24;9.60;99.90
33095;DHT22;19459;53.044;8.910;2022-12-24T15:06:33;9.50;99.90
33095;DHT22;19459;53.044;8.910;2022-12-24T15:09:00;9.50;99.90
33095;DHT22;19459;53.044;8.910;2022-12-24T15:11:26;9.40;99.90
33095;DHT22;19459;53.044;8.910;2022-12-24T15:13:55;9.30;99.90
33095;DHT22;19459;53.044;8.910;2022-12-24T15:16:25;9.30;99.90
33095;DHT22;19459;53.044;8.910;2022-12-24T15:18:58;9.20;99.90
33095;DHT22;19459;53.044;8.910;2022-12-24T15:21:33;9.20;99.90
33095;DHT22;19459;53.044;8.910;2022-12-24T15:24:02;9.10;99.90
33095;DHT22;19459;53.044;8.910;2022-12-24T15:26:33;9.20;99.90
33095;DHT22;19459;53.044;8.910;2022-12-24T15:29:15;9.20;99.90
33095;DHT22;19459;53.044;8.910;2022-12-24T15:31:47;9.10;99.90
33095;DHT22;19459;53.044;8.910;2022-12-24T15:34:45;9.10;99.90
33095;DHT22;19459;53.044;8.910;2022-12-24T15:37:30;9.00;99.90
33095;DHT22;19459;53.044;8.910;2022-12-24T15:42:34;8.90;99.90
33095;DHT22;19459;53.044;8.910;2022-12-24T15:45:10;8.80;99.90
33095;DHT22;19459;53.044;8.910;2022-12-24T15:47:47;8.80;99.90
33095;DHT22;19459;53.044;8.910;2022-12-24T15:52:49;8.70;99.90
33095;DHT22;19459;53.044;8.910;2022-12-24T15:55:26;8.60;99.90
33095;DHT22;19459;53.044;8.910;2022-12-24T15:57:53;8.60;99.90
33095;DHT22;19459;53.044;8.910;2022-12-24T16:00:27;8.60;99.90
33095;DHT22;19459;53.044;8.910;2022-12-24T16:03:10;8.50;99.90
33095;DHT22;19459;53.044;8.910;2022-12-24T16:05:38;8.60;99.90
33095;DHT22;19459;53.044;8.910;2022-12-24T16:10:51;8.50;99.90
33095;DHT22;19459;53.044;8.910;2022-12-24T16:13:57;8.40;99.90
33095;DHT22;19459;53.044;8.910;2022-12-24T16:16:39;8.40;99.90
33095;DHT22;19459;53.044;8.910;2022-12-24T16:19:14;8.50;99.90
33095;DHT22;19459;53.044;8.910;2022-12-24T16:21:43;8.60;99.90
33095;DHT22;19459;53.044;8.910;2022-12-24T16:24:38;8.60;99.90
33095;DHT22;19459;53.044;8.910;2022-12-24T16:27:09;8.60;99.90
33095;DHT22;19459;53.044;8.910;2022-12-24T16:29:37;8.60;99.90
33095;DHT22;19459;53.044;8.910;2022-12-24T16:32:03;8.70;99.90
33095;DHT22;19459;53.044;8.910;2022-12-24T16:34:30;8.70;99.90
33095;DHT22;19459;53.044;8.910;2022-12-24T16:36:58;8.70;99.90
33095;DHT22;19459;53.044;8.910;2022-12-24T16:39:28;8.80;99.90
33095;DHT22;19459;53.044;8.910;2022-12-24T16:41:58;8.80;99.90
33095;DHT22;19459;53.044;8.910;2022-12-24T16:44:43;8.80;99.90
33095;DHT22;19459;53.044;8.910;2022-12-24T16:47:19;8.80;99.90
33095;DHT22;19459;53.044;8.910;2022-12-24T16:49:46;8.80;99.90
33095;DHT22;19459;53.044;8.910;2022-12-24T16:52:20;8.90;99.90
33095;DHT22;19459;53.044;8.910;2022-12-24T16:54:48;8.90;99.90
33095;DHT22;19459;53.044;8.910;2022-12-24T16:57:14;9.00;99.90
33095;DHT22;19459;53.044;8.910;2022-12-24T16:59:40;9.00;99.90
33095;DHT22;19459;53.044;8.910;2022-12-24T17:02:09;9.00;99.90
33095;DHT22;19459;53.044;8.910;2022-12-24T17:04:39;9.00;99.90
33095;DHT22;19459;53.044;8.910;2022-12-24T17:07:06;9.00;99.90
33095;DHT22;19459;53.044;8.910;2022-12-24T17:09:32;9.00;99.90
33095;DHT22;19459;53.044;8.910;2022-12-24T17:11:58;9.00;99.90
33095;DHT22;19459;53.044;8.910;2022-12-24T17:14:24;9.00;99.90
33095;DHT22;19459;53.044;8.910;2022-12-24T17:16:49;9.00;99.90
33095;DHT22;19459;53.044;8.910;2022-12-24T17:19:15;9.10;99.90
33095;DHT22;19459;53.044;8.910;2022-12-24T17:21:42;9.00;99.90
33095;DHT22;19459;53.044;8.910;2022-12-24T17:24:07;9.00;99.90
33095;DHT22;19459;53.044;8.910;2022-12-24T17:26:33;9.00;99.90
33095;DHT22;19459;53.044;8.910;2022-12-24T17:28:59;8.90;99.90
33095;DHT22;19459;53.044;8.910;2022-12-24T17:31:28;8.90;99.90
33095;DHT22;19459;53.044;8.910;2022-12-24T17:33:53;8.90;99.90
33095;DHT22;19459;53.044;8.910;2022-12-24T17:36:19;8.80;99.90
33095;DHT22;19459;53.044;8.910;2022-12-24T17:38:46;8.80;99.90
33095;DHT22;19459;53.044;8.910;2022-12-24T17:41:14;8.80;99.90
33095;DHT22;19459;53.044;8.910;2022-12-24T17:43:41;8.80;99.90
33095;DHT22;19459;53.044;8.910;2022-12-24T17:46:20;8.80;99.90
33095;DHT22;19459;53.044;8.910;2022-12-24T17:48:47;8.80;99.90
33095;DHT22;19459;53.044;8.910;2022-12-24T17:51:15;8.80;99.90
33095;DHT22;19459;53.044;8.910;2022-12-24T17:53:43;8.70;99.90
33095;DHT22;19459;53.044;8.910;2022-12-24T17:56:11;8.70;99.90
33095;DHT22;19459;53.044;8.910;2022-12-24T17:58:42;8.70;99.90
33095;DHT22;19459;53.044;8.910;2022-12-24T18:01:15;8.70;99.90
33095;DHT22;19459;53.044;8.910;2022-12-24T18:03:43;8.70;99.90
33095;DHT22;19459;53.044;8.910;2022-12-24T18:06:11;8.60;99.90
33095;DHT22;19459;53.044;8.910;2022-12-24T18:08:38;8.60;99.90
33095;DHT22;19459;53.044;8.910;2022-12-24T18:11:25;8.60;99.90
33095;DHT22;19459;53.044;8.910;2022-12-24T18:13:54;8.60;99.90
33095;DHT22;19459;53.044;8.910;2022-12-24T18:16:38;8.50;99.90
33095;DHT22;19459;53.044;8.910;2022-12-24T18:19:06;8.50;99.90
33095;DHT22;19459;53.044;8.910;2022-12-24T18:21:34;8.50;99.90
33095;DHT22;19459;53.044;8.910;2022-12-24T18:24:00;8.40;99.90
33095;DHT22;19459;53.044;8.910;2022-12-24T18:26:28;8.40;99.90
33095;DHT22;19459;53.044;8.910;2022-12-24T18:28:57;8.30;99.90
33095;DHT22;19459;53.044;8.910;2022-12-24T18:31:24;8.30;99.90
33095;DHT22;19459;53.044;8.910;2022-12-24T18:33:52;8.30;99.90